createdAt,value
2023-01-08T00:00:38.256Z,78
2023-01-08T00:01:23.432Z,78
2023-01-08T00:02:10.165Z,78
2023-01-08T00:02:56.292Z,78
2023-01-08T00:03:42.376Z,78
2023-01-08T00:04:28.140Z,78
2023-01-08T00:05:14.184Z,78
2023-01-08T00:06:00.181Z,78
2023-01-08T00:06:46.196Z,78
2023-01-08T00:07:32.266Z,78
2023-01-08T00:08:18.170Z,78
2023-01-08T00:09:03.484Z,78
2023-01-08T00:09:49.480Z,78
2023-01-08T00:10:36.223Z,78
2023-01-08T00:11:22.202Z,78
2023-01-08T00:12:07.470Z,78
2023-01-08T00:12:54.195Z,78
2023-01-08T00:13:40.478Z,78
2023-01-08T00:14:26.173Z,78
2023-01-08T00:15:12.509Z,78
2023-01-08T00:15:58.187Z,78
2023-01-08T00:16:44.248Z,78
2023-01-08T00:17:30.252Z,78
2023-01-08T00:18:16.214Z,78
2023-01-08T00:19:02.214Z,78
2023-01-08T00:19:48.177Z,78
2023-01-08T00:20:34.141Z,78
2023-01-08T00:21:20.170Z,78
2023-01-08T00:22:06.149Z,78
2023-01-08T00:22:52.195Z,78
2023-01-08T00:23:38.244Z,78
2023-01-08T00:24:24.231Z,78
2023-01-08T00:25:09.488Z,78
2023-01-08T00:25:56.255Z,78
2023-01-08T00:26:42.408Z,79
2023-01-08T00:27:28.224Z,79
2023-01-08T00:28:14.170Z,79
2023-01-08T00:29:00.218Z,79
2023-01-08T00:29:46.208Z,79
2023-01-08T00:30:32.393Z,79
2023-01-08T00:31:18.296Z,79
2023-01-08T00:32:06.961Z,79
2023-01-08T00:32:50.327Z,79
2023-01-08T00:33:36.191Z,79
2023-01-08T00:34:22.286Z,79
2023-01-08T00:35:08.265Z,79
2023-01-08T00:35:54.233Z,79
2023-01-08T00:36:40.292Z,79
2023-01-08T00:37:26.209Z,79
2023-01-08T00:38:12.470Z,79
2023-01-08T00:38:58.277Z,79
2023-01-08T00:39:44.179Z,79
2023-01-08T00:40:30.286Z,79
2023-01-08T00:41:16.356Z,79
2023-01-08T00:42:02.269Z,80
2023-01-08T00:42:48.256Z,80
2023-01-08T00:43:34.342Z,80
2023-01-08T00:44:20.296Z,80
2023-01-08T00:45:06.275Z,80
2023-01-08T00:45:52.318Z,80
2023-01-08T00:46:38.280Z,80
2023-01-08T00:47:24.291Z,80
2023-01-08T00:48:10.357Z,80
2023-01-08T00:48:56.217Z,80
2023-01-08T00:49:42.451Z,80
2023-01-08T00:50:28.281Z,80
2023-01-08T00:51:14.235Z,80
2023-01-08T00:52:00.377Z,80
2023-01-08T00:52:46.239Z,80
2023-01-08T00:53:32.266Z,80
2023-01-08T00:54:18.380Z,80
2023-01-08T00:55:04.306Z,80
2023-01-08T00:55:50.315Z,80
2023-01-08T00:56:36.397Z,80
2023-01-08T00:57:22.327Z,80
2023-01-08T00:58:08.321Z,80
2023-01-08T00:58:54.378Z,80
2023-01-08T00:59:40.293Z,80
2023-01-08T01:00:26.392Z,80
2023-01-08T01:01:12.817Z,80
2023-01-08T01:01:58.513Z,80
2023-01-08T01:02:44.254Z,80
2023-01-08T01:03:30.340Z,80
2023-01-08T01:04:16.320Z,80
2023-01-08T01:05:02.349Z,80
2023-01-08T01:05:48.333Z,80
2023-01-08T01:06:34.261Z,80
2023-01-08T01:07:20.328Z,80
2023-01-08T01:08:06.275Z,80
2023-01-08T01:08:52.373Z,80
2023-01-08T01:09:38.346Z,79
2023-01-08T01:10:24.400Z,79
2023-01-08T01:11:10.733Z,79
2023-01-08T01:11:56.304Z,79
2023-01-08T01:12:42.625Z,79
2023-01-08T01:13:28.417Z,79
2023-01-08T01:14:14.403Z,79
2023-01-08T01:15:00.559Z,79
2023-01-08T01:15:46.397Z,79
2023-01-08T01:16:32.462Z,79
2023-01-08T01:17:18.416Z,80
2023-01-08T01:18:04.388Z,80
2023-01-08T01:18:50.363Z,80
2023-01-08T01:19:36.444Z,80
2023-01-08T01:20:22.433Z,80
2023-01-08T01:21:08.449Z,80
2023-01-08T01:21:54.414Z,80
2023-01-08T01:22:40.536Z,80
2023-01-08T01:23:26.443Z,80
2023-01-08T01:24:12.539Z,80
2023-01-08T01:24:58.402Z,80
2023-01-08T01:25:45.819Z,80
2023-01-08T01:26:30.479Z,80
2023-01-08T01:27:16.425Z,81
2023-01-08T01:28:02.511Z,81
2023-01-08T01:28:47.670Z,81
2023-01-08T01:29:34.521Z,82
2023-01-08T01:30:20.491Z,82
2023-01-08T01:31:06.413Z,83
2023-01-08T01:31:52.468Z,83
2023-01-08T01:32:38.454Z,83
2023-01-08T01:33:24.494Z,83
2023-01-08T01:34:10.514Z,83
2023-01-08T01:34:56.463Z,84
2023-01-08T01:35:45.207Z,84
2023-01-08T01:36:28.464Z,85
2023-01-08T01:37:14.523Z,85
2023-01-08T01:38:00.578Z,85
2023-01-08T01:38:46.443Z,85
2023-01-08T01:39:32.474Z,86
2023-01-08T01:40:18.433Z,86
2023-01-08T01:41:04.472Z,86
2023-01-08T01:41:50.458Z,86
2023-01-08T01:42:36.520Z,86
2023-01-08T01:43:22.520Z,87
2023-01-08T01:44:08.608Z,87
2023-01-08T01:44:54.485Z,87
2023-01-08T01:45:40.593Z,87
2023-01-08T01:46:26.513Z,87
2023-01-08T01:47:12.678Z,87
2023-01-08T01:47:58.679Z,88
2023-01-08T01:48:44.519Z,88
2023-01-08T01:49:30.661Z,88
2023-01-08T01:50:16.583Z,88
2023-01-08T01:51:02.589Z,88
2023-01-08T01:51:48.608Z,88
2023-01-08T01:52:34.571Z,88
2023-01-08T01:53:20.625Z,88
2023-01-08T01:54:06.479Z,88
2023-01-08T01:54:52.549Z,88
2023-01-08T01:55:38.535Z,88
2023-01-08T01:56:24.644Z,88
2023-01-08T01:57:10.630Z,88
2023-01-08T01:57:56.583Z,88
2023-01-08T01:58:42.670Z,88
2023-01-08T01:59:28.457Z,88
2023-01-08T02:00:14.583Z,88
2023-01-08T02:01:00.709Z,88
2023-01-08T02:01:46.632Z,89
2023-01-08T02:02:32.739Z,89
2023-01-08T02:03:18.532Z,89
2023-01-08T02:04:04.633Z,89
2023-01-08T02:04:50.546Z,88
2023-01-08T02:05:36.556Z,89
2023-01-08T02:06:22.536Z,89
2023-01-08T02:07:08.539Z,89
2023-01-08T02:07:54.677Z,89
2023-01-08T02:08:40.875Z,89
2023-01-08T02:09:26.668Z,89
2023-01-08T02:10:12.789Z,89
2023-01-08T02:10:58.609Z,89
2023-01-08T02:11:44.715Z,89
2023-01-08T02:12:30.619Z,89
2023-01-08T02:13:16.624Z,89
2023-01-08T02:14:02.721Z,89
2023-01-08T02:14:47.812Z,89
2023-01-08T02:15:34.823Z,90
2023-01-08T02:16:20.666Z,90
2023-01-08T02:17:06.698Z,90
2023-01-08T02:17:52.700Z,90
2023-01-08T02:18:38.658Z,90
2023-01-08T02:19:24.629Z,90
2023-01-08T02:20:10.624Z,90
2023-01-08T02:20:56.667Z,90
2023-01-08T02:21:42.857Z,90
2023-01-08T02:22:28.683Z,90
2023-01-08T02:23:14.621Z,90
2023-01-08T02:24:00.691Z,90
2023-01-08T02:24:46.764Z,90
2023-01-08T02:25:32.665Z,91
2023-01-08T02:26:18.633Z,91
2023-01-08T02:27:04.668Z,91
2023-01-08T02:27:50.772Z,91
2023-01-08T02:28:36.600Z,91
2023-01-08T02:29:22.690Z,91
2023-01-08T02:30:08.678Z,91
2023-01-08T02:30:54.832Z,91
2023-01-08T02:31:39.868Z,91
2023-01-08T02:32:26.572Z,91
2023-01-08T02:33:12.857Z,91
2023-01-08T02:33:58.627Z,91
2023-01-08T02:34:44.581Z,91
2023-01-08T02:35:30.631Z,91
2023-01-08T02:36:16.663Z,91
2023-01-08T02:37:02.880Z,91
2023-01-08T02:37:48.629Z,91
2023-01-08T02:38:34.574Z,91
2023-01-08T02:39:20.629Z,91
2023-01-08T02:40:06.660Z,91
2023-01-08T02:40:52.694Z,91
2023-01-08T02:41:38.699Z,91
2023-01-08T02:42:24.626Z,91
2023-01-08T02:43:10.627Z,91
2023-01-08T02:43:58.934Z,91
2023-01-08T02:44:42.774Z,91
2023-01-08T02:45:28.670Z,91
2023-01-08T02:46:14.736Z,91
2023-01-08T02:46:59.907Z,91
2023-01-08T02:47:46.652Z,91
2023-01-08T02:48:32.683Z,91
2023-01-08T02:49:18.720Z,91
2023-01-08T02:50:04.717Z,91
2023-01-08T02:50:50.723Z,91
2023-01-08T02:51:36.673Z,90
2023-01-08T02:52:22.750Z,90
2023-01-08T02:53:07.935Z,90
2023-01-08T02:53:54.687Z,90
2023-01-08T02:54:40.789Z,90
2023-01-08T02:55:26.880Z,91
2023-01-08T02:56:12.999Z,91
2023-01-08T02:56:58.818Z,91
2023-01-08T02:57:44.793Z,91
2023-01-08T02:58:30.803Z,90
2023-01-08T02:59:16.807Z,90
2023-01-08T03:00:03.052Z,91
2023-01-08T03:00:48.796Z,91
2023-01-08T03:01:34.958Z,91
2023-01-08T03:02:20.992Z,91
2023-01-08T03:03:06.911Z,91
2023-01-08T03:03:52.994Z,91
2023-01-08T03:04:38.764Z,91
2023-01-08T03:05:24.752Z,91
2023-01-08T03:06:10.826Z,91
2023-01-08T03:06:56.719Z,91
2023-01-08T03:07:42.979Z,91
2023-01-08T03:08:28.698Z,91
2023-01-08T03:09:14.695Z,91
2023-01-08T03:10:00.787Z,91
2023-01-08T03:10:46.681Z,91
2023-01-08T03:11:32.711Z,91
2023-01-08T03:12:18.739Z,91
2023-01-08T03:13:04.693Z,91
2023-01-08T03:13:50.710Z,91
2023-01-08T03:14:36.818Z,91
2023-01-08T03:15:22.850Z,91
2023-01-08T03:16:08.789Z,91
2023-01-08T03:16:54.896Z,91
2023-01-08T03:17:40.834Z,91
2023-01-08T03:18:26.812Z,91
2023-01-08T03:19:12.902Z,91
2023-01-08T03:19:58.793Z,92
2023-01-08T03:20:44.713Z,91
2023-01-08T03:21:30.826Z,92
2023-01-08T03:22:16.853Z,92
2023-01-08T03:23:02.813Z,92
2023-01-08T03:23:48.807Z,92
2023-01-08T03:24:34.744Z,92
2023-01-08T03:25:20.746Z,92
2023-01-08T03:26:06.747Z,92
2023-01-08T03:26:52.831Z,92
2023-01-08T03:27:38.764Z,92
2023-01-08T03:28:24.802Z,92
2023-01-08T03:29:10.745Z,92
2023-01-08T03:29:56.017Z,92
2023-01-08T03:30:43.067Z,92
2023-01-08T03:31:28.734Z,92
2023-01-08T03:32:14.735Z,92
2023-01-08T03:33:00.013Z,92
2023-01-08T03:33:46.795Z,92
2023-01-08T03:34:32.738Z,92
2023-01-08T03:35:18.767Z,92
2023-01-08T03:36:04.890Z,92
2023-01-08T03:36:50.813Z,92
2023-01-08T03:37:36.882Z,92
2023-01-08T03:38:22.792Z,92
2023-01-08T03:39:08.860Z,92
2023-01-08T03:39:54.766Z,92
2023-01-08T03:40:40.784Z,92
2023-01-08T03:41:26.836Z,92
2023-01-08T03:42:12.046Z,92
2023-01-08T03:42:58.036Z,92
2023-01-08T03:43:44.811Z,92
2023-01-08T03:44:30.766Z,92
2023-01-08T03:45:16.838Z,92
2023-01-08T03:46:02.835Z,92
2023-01-08T03:46:48.805Z,92
2023-01-08T03:47:34.781Z,92
2023-01-08T03:48:20.758Z,92
2023-01-08T03:49:06.850Z,92
2023-01-08T03:49:52.850Z,92
2023-01-08T03:50:38.823Z,92
2023-01-08T03:51:24.753Z,92
2023-01-08T03:52:10.828Z,92
2023-01-08T03:52:58.725Z,92
2023-01-08T03:53:43.128Z,92
2023-01-08T03:54:28.741Z,93
2023-01-08T03:55:14.731Z,93
2023-01-08T03:56:00.861Z,93
2023-01-08T03:56:46.905Z,93
2023-01-08T03:57:32.851Z,93
2023-01-08T03:58:18.868Z,93
2023-01-08T03:59:04.923Z,93
2023-01-08T03:59:50.879Z,93
2023-01-08T04:00:37.009Z,93
2023-01-08T04:01:23.009Z,93
2023-01-08T04:02:08.208Z,93
2023-01-08T04:02:54.890Z,93
2023-01-08T04:03:40.995Z,93
2023-01-08T04:04:26.845Z,93
2023-01-08T04:05:13.095Z,93
2023-01-08T04:05:58.778Z,93
2023-01-08T04:06:44.826Z,93
2023-01-08T04:07:30.824Z,93
2023-01-08T04:08:16.820Z,93
2023-01-08T04:09:02.933Z,92
2023-01-08T04:09:48.835Z,92
2023-01-08T04:10:34.786Z,92
2023-01-08T04:11:20.889Z,93
2023-01-08T04:12:06.872Z,93
2023-01-08T04:12:52.864Z,93
2023-01-08T04:13:38.787Z,93
2023-01-08T04:14:24.846Z,93
2023-01-08T04:15:10.963Z,93
2023-01-08T04:15:57.012Z,93
2023-01-08T04:16:42.956Z,93
2023-01-08T04:17:28.823Z,93
2023-01-08T04:18:14.154Z,93
2023-01-08T04:19:00.928Z,92
2023-01-08T04:19:46.856Z,92
2023-01-08T04:20:32.881Z,92
2023-01-08T04:21:18.859Z,92
2023-01-08T04:22:04.861Z,92
2023-01-08T04:22:50.822Z,92
2023-01-08T04:23:36.867Z,92
2023-01-08T04:24:22.925Z,92
2023-01-08T04:25:08.918Z,92
2023-01-08T04:25:54.866Z,92
2023-01-08T04:26:40.861Z,92
2023-01-08T04:27:26.847Z,92
2023-01-08T04:28:13.042Z,92
2023-01-08T04:28:58.919Z,92
2023-01-08T04:29:44.819Z,92
2023-01-08T04:30:30.989Z,92
2023-01-08T04:31:16.970Z,92
2023-01-08T04:32:02.916Z,92
2023-01-08T04:32:49.021Z,92
2023-01-08T04:33:34.882Z,92
2023-01-08T04:34:20.896Z,92
2023-01-08T04:35:06.838Z,92
2023-01-08T04:35:52.903Z,92
2023-01-08T04:36:38.892Z,92
2023-01-08T04:37:24.889Z,92
2023-01-08T04:38:11.661Z,92
2023-01-08T04:38:56.888Z,92
2023-01-08T04:39:43.027Z,92
2023-01-08T04:40:28.950Z,92
2023-01-08T04:41:14.921Z,92
2023-01-08T04:42:01.018Z,92
2023-01-08T04:42:46.976Z,92
2023-01-08T04:43:32.949Z,92
2023-01-08T04:44:18.974Z,92
2023-01-08T04:45:05.077Z,92
2023-01-08T04:45:50.998Z,92
2023-01-08T04:46:37.173Z,92
2023-01-08T04:47:23.088Z,92
2023-01-08T04:48:09.018Z,92
2023-01-08T04:48:54.981Z,92
2023-01-08T04:49:41.022Z,92
2023-01-08T04:50:26.956Z,92
2023-01-08T04:51:13.144Z,92
2023-01-08T04:51:58.948Z,92
2023-01-08T04:52:44.876Z,92
2023-01-08T04:53:30.932Z,92
2023-01-08T04:54:16.927Z,92
2023-01-08T04:55:02.974Z,92
2023-01-08T04:55:48.983Z,92
2023-01-08T04:56:34.912Z,92
2023-01-08T04:57:20.966Z,92
2023-01-08T04:58:06.995Z,92
2023-01-08T04:58:53.031Z,92
2023-01-08T04:59:38.922Z,92
2023-01-08T05:00:25.061Z,92
2023-01-08T05:01:11.161Z,92
2023-01-08T05:01:57.189Z,92
2023-01-08T05:02:43.384Z,92
2023-01-08T05:03:29.108Z,92
2023-01-08T05:04:15.060Z,92
2023-01-08T05:05:00.249Z,92
2023-01-08T05:05:49.816Z,92
2023-01-08T05:06:33.059Z,92
2023-01-08T05:07:19.026Z,92
2023-01-08T05:08:05.068Z,92
2023-01-08T05:08:51.068Z,92
2023-01-08T05:09:37.016Z,92
2023-01-08T05:10:23.080Z,92
2023-01-08T05:11:09.059Z,92
2023-01-08T05:11:55.042Z,91
2023-01-08T05:12:43.791Z,91
2023-01-08T05:13:26.953Z,91
2023-01-08T05:14:13.361Z,92
2023-01-08T05:14:59.017Z,91
2023-01-08T05:15:45.150Z,91
2023-01-08T05:16:31.120Z,91
2023-01-08T05:17:17.050Z,91
2023-01-08T05:18:03.026Z,91
2023-01-08T05:18:49.028Z,91
2023-01-08T05:19:35.585Z,91
2023-01-08T05:20:20.989Z,91
2023-01-08T05:21:07.043Z,91
2023-01-08T05:21:53.055Z,91
2023-01-08T05:22:38.987Z,91
2023-01-08T05:23:25.058Z,91
2023-01-08T05:24:11.058Z,91
2023-01-08T05:24:56.992Z,91
2023-01-08T05:25:43.066Z,91
2023-01-08T05:26:29.098Z,91
2023-01-08T05:27:15.042Z,92
2023-01-08T05:28:01.042Z,91
2023-01-08T05:28:47.010Z,92
2023-01-08T05:29:33.085Z,92
2023-01-08T05:30:19.183Z,92
2023-01-08T05:31:05.152Z,92
2023-01-08T05:31:51.065Z,92
2023-01-08T05:32:36.997Z,92
2023-01-08T05:33:23.138Z,92
2023-01-08T05:34:09.035Z,92
2023-01-08T05:34:55.034Z,92
2023-01-08T05:35:41.036Z,92
2023-01-08T05:36:27.050Z,92
2023-01-08T05:37:13.232Z,92
2023-01-08T05:37:59.114Z,92
2023-01-08T05:38:45.052Z,91
2023-01-08T05:39:31.055Z,91
2023-01-08T05:40:17.106Z,91
2023-01-08T05:41:03.081Z,91
2023-01-08T05:41:49.074Z,91
2023-01-08T05:42:35.050Z,91
2023-01-08T05:43:21.028Z,91
2023-01-08T05:44:07.155Z,91
2023-01-08T05:44:53.146Z,91
2023-01-08T05:45:39.192Z,91
2023-01-08T05:46:25.143Z,91
2023-01-08T05:47:11.206Z,91
2023-01-08T05:47:57.115Z,91
2023-01-08T05:48:43.120Z,91
2023-01-08T05:49:29.092Z,91
2023-01-08T05:50:15.090Z,92
2023-01-08T05:51:01.118Z,92
2023-01-08T05:51:47.083Z,91
2023-01-08T05:52:33.146Z,91
2023-01-08T05:53:19.124Z,91
2023-01-08T05:54:05.107Z,91
2023-01-08T05:54:51.133Z,91
2023-01-08T05:55:37.131Z,91
2023-01-08T05:56:23.148Z,92
2023-01-08T05:57:09.062Z,92
2023-01-08T05:57:55.113Z,92
2023-01-08T05:58:41.118Z,92
2023-01-08T05:59:27.089Z,92
2023-01-08T06:00:13.309Z,92
2023-01-08T06:00:59.100Z,92
2023-01-08T06:01:45.168Z,92
2023-01-08T06:02:31.199Z,92
2023-01-08T06:03:17.128Z,92
2023-01-08T06:04:03.258Z,92
2023-01-08T06:04:49.162Z,92
2023-01-08T06:05:35.123Z,92
2023-01-08T06:06:21.135Z,92
2023-01-08T06:07:07.155Z,92
2023-01-08T06:07:53.219Z,92
2023-01-08T06:08:39.104Z,92
2023-01-08T06:09:25.202Z,92
2023-01-08T06:10:11.160Z,92
2023-01-08T06:10:57.158Z,92
2023-01-08T06:11:43.184Z,92
2023-01-08T06:12:29.145Z,92
2023-01-08T06:13:15.119Z,92
2023-01-08T06:14:01.217Z,92
2023-01-08T06:14:47.153Z,92
2023-01-08T06:15:33.279Z,92
2023-01-08T06:16:19.218Z,92
2023-01-08T06:17:05.249Z,92
2023-01-08T06:17:51.205Z,92
2023-01-08T06:18:37.277Z,92
2023-01-08T06:19:23.245Z,92
2023-01-08T06:20:08.454Z,92
2023-01-08T06:20:55.176Z,92
2023-01-08T06:21:41.173Z,92
2023-01-08T06:22:27.164Z,92
2023-01-08T06:23:13.230Z,92
2023-01-08T06:23:59.189Z,92
2023-01-08T06:24:45.159Z,92
2023-01-08T06:25:31.194Z,92
2023-01-08T06:26:17.188Z,92
2023-01-08T06:27:03.256Z,92
2023-01-08T06:27:49.234Z,93
2023-01-08T06:28:35.172Z,92
2023-01-08T06:29:21.279Z,93
2023-01-08T06:30:07.223Z,93
2023-01-08T06:30:53.318Z,93
2023-01-08T06:31:39.307Z,93
2023-01-08T06:32:25.196Z,93
2023-01-08T06:33:11.203Z,93
2023-01-08T06:33:57.159Z,93
2023-01-08T06:34:43.183Z,93
2023-01-08T06:35:29.198Z,93
2023-01-08T06:36:15.236Z,93
2023-01-08T06:37:01.248Z,93
2023-01-08T06:37:47.261Z,93
2023-01-08T06:38:33.217Z,93
2023-01-08T06:39:19.214Z,93
2023-01-08T06:40:05.161Z,93
2023-01-08T06:40:51.219Z,93
2023-01-08T06:41:37.176Z,93
2023-01-08T06:42:23.284Z,93
2023-01-08T06:43:09.218Z,93
2023-01-08T06:43:55.313Z,93
2023-01-08T06:44:41.219Z,93
2023-01-08T06:45:27.272Z,93
2023-01-08T06:46:13.364Z,93
2023-01-08T06:46:59.206Z,93
2023-01-08T06:47:45.201Z,93
2023-01-08T06:48:31.271Z,93
2023-01-08T06:49:17.220Z,93
2023-01-08T06:50:03.273Z,93
2023-01-08T06:50:49.232Z,93
2023-01-08T06:51:35.231Z,93
2023-01-08T06:52:21.236Z,93
2023-01-08T06:53:07.212Z,93
2023-01-08T06:53:53.333Z,93
2023-01-08T06:54:39.252Z,93
2023-01-08T06:55:25.262Z,93
2023-01-08T06:56:11.281Z,93
2023-01-08T06:56:57.239Z,93
2023-01-08T06:57:43.260Z,93
2023-01-08T06:58:29.295Z,93
2023-01-08T06:59:15.276Z,93
2023-01-08T07:00:01.794Z,93
2023-01-08T07:00:47.277Z,93
2023-01-08T07:01:33.454Z,93
2023-01-08T07:02:19.500Z,93
2023-01-08T07:03:05.531Z,93
2023-01-08T07:03:51.301Z,93
2023-01-08T07:04:37.338Z,93
2023-01-08T07:05:23.491Z,93
2023-01-08T07:06:09.280Z,93
2023-01-08T07:06:55.272Z,93
2023-01-08T07:07:41.325Z,93
2023-01-08T07:08:27.261Z,93
2023-01-08T07:09:13.336Z,93
2023-01-08T07:09:59.267Z,93
2023-01-08T07:10:45.337Z,93
2023-01-08T07:11:31.325Z,93
2023-01-08T07:12:17.317Z,93
2023-01-08T07:13:03.306Z,93
2023-01-08T07:13:49.332Z,93
2023-01-08T07:14:35.313Z,93
2023-01-08T07:15:21.956Z,93
2023-01-08T07:16:07.414Z,93
2023-01-08T07:16:53.372Z,93
2023-01-08T07:17:39.386Z,93
2023-01-08T07:18:25.352Z,93
2023-01-08T07:19:11.391Z,93
2023-01-08T07:19:57.272Z,93
2023-01-08T07:20:43.315Z,93
2023-01-08T07:21:29.326Z,93
2023-01-08T07:22:15.335Z,93
2023-01-08T07:23:01.411Z,93
2023-01-08T07:23:47.316Z,93
2023-01-08T07:24:33.360Z,93
2023-01-08T07:25:19.338Z,93
2023-01-08T07:26:05.330Z,93
2023-01-08T07:26:51.396Z,93
2023-01-08T07:27:37.343Z,93
2023-01-08T07:28:23.460Z,93
2023-01-08T07:29:09.388Z,93
2023-01-08T07:29:55.387Z,93
2023-01-08T07:30:41.492Z,93
2023-01-08T07:31:27.587Z,93
2023-01-08T07:32:13.473Z,93
2023-01-08T07:32:59.401Z,93
2023-01-08T07:33:45.434Z,93
2023-01-08T07:34:31.366Z,93
2023-01-08T07:35:17.525Z,93
2023-01-08T07:36:03.666Z,93
2023-01-08T07:36:49.536Z,93
2023-01-08T07:37:34.680Z,93
2023-01-08T07:38:21.878Z,93
2023-01-08T07:39:07.639Z,93
2023-01-08T07:39:53.541Z,93
2023-01-08T07:40:39.663Z,93
2023-01-08T07:41:25.417Z,93
2023-01-08T07:42:11.557Z,93
2023-01-08T07:42:57.491Z,93
2023-01-08T07:43:43.433Z,93
2023-01-08T07:44:28.665Z,93
2023-01-08T07:45:15.576Z,93
2023-01-08T07:46:01.501Z,93
2023-01-08T07:46:47.688Z,93
2023-01-08T07:47:33.505Z,93
2023-01-08T07:48:19.544Z,93
2023-01-08T07:49:05.461Z,93
2023-01-08T07:49:51.472Z,93
2023-01-08T07:50:37.513Z,93
2023-01-08T07:51:22.694Z,93
2023-01-08T07:52:09.474Z,93
2023-01-08T07:52:55.480Z,93
2023-01-08T07:53:41.619Z,93
2023-01-08T07:54:27.531Z,93
2023-01-08T07:55:13.523Z,93
2023-01-08T07:55:59.457Z,93
2023-01-08T07:56:45.449Z,93
2023-01-08T07:57:31.495Z,93
2023-01-08T07:58:17.467Z,93
2023-01-08T07:59:03.576Z,93
2023-01-08T07:59:49.562Z,93
2023-01-08T08:00:35.616Z,93
2023-01-08T08:01:22.336Z,93
2023-01-08T08:02:07.739Z,93
2023-01-08T08:02:53.744Z,93
2023-01-08T08:03:39.607Z,93
2023-01-08T08:04:24.756Z,93
2023-01-08T08:05:11.621Z,93
2023-01-08T08:05:57.617Z,93
2023-01-08T08:06:43.552Z,93
2023-01-08T08:07:29.530Z,93
2023-01-08T08:08:15.559Z,93
2023-01-08T08:09:01.542Z,93
2023-01-08T08:09:47.518Z,93
2023-01-08T08:10:33.547Z,93
2023-01-08T08:11:19.577Z,93
2023-01-08T08:12:05.558Z,93
2023-01-08T08:12:51.611Z,93
2023-01-08T08:13:37.564Z,93
2023-01-08T08:14:23.732Z,93
2023-01-08T08:15:09.634Z,93
2023-01-08T08:15:55.727Z,93
2023-01-08T08:16:41.600Z,93
2023-01-08T08:17:27.595Z,93
2023-01-08T08:18:13.594Z,93
2023-01-08T08:18:59.631Z,93
2023-01-08T08:19:45.547Z,93
2023-01-08T08:20:31.639Z,93
2023-01-08T08:21:17.686Z,93
2023-01-08T08:22:03.576Z,93
2023-01-08T08:22:49.645Z,93
2023-01-08T08:23:36.586Z,93
2023-01-08T08:24:22.257Z,93
2023-01-08T08:25:07.627Z,93
2023-01-08T08:25:53.689Z,93
2023-01-08T08:26:39.547Z,93
2023-01-08T08:27:25.748Z,93
2023-01-08T08:28:11.620Z,93
2023-01-08T08:28:57.651Z,93
2023-01-08T08:29:43.650Z,93
2023-01-08T08:30:29.636Z,93
2023-01-08T08:31:15.715Z,93
2023-01-08T08:32:01.698Z,93
2023-01-08T08:32:47.611Z,93
2023-01-08T08:33:33.648Z,93
2023-01-08T08:34:19.709Z,93
2023-01-08T08:35:05.636Z,93
2023-01-08T08:35:50.888Z,93
2023-01-08T08:36:37.593Z,93
2023-01-08T08:37:23.700Z,93
2023-01-08T08:38:09.630Z,93
2023-01-08T08:38:55.605Z,93
2023-01-08T08:39:41.662Z,93
2023-01-08T08:40:27.671Z,93
2023-01-08T08:41:13.671Z,93
2023-01-08T08:41:59.676Z,93
2023-01-08T08:42:45.648Z,94
2023-01-08T08:43:31.682Z,94
2023-01-08T08:44:17.622Z,94
2023-01-08T08:45:03.818Z,93
2023-01-08T08:45:49.631Z,94
2023-01-08T08:46:35.777Z,94
2023-01-08T08:47:22.452Z,94
2023-01-08T08:48:07.647Z,94
2023-01-08T08:48:53.759Z,94
2023-01-08T08:49:39.680Z,94
2023-01-08T08:50:25.846Z,94
2023-01-08T08:51:11.843Z,94
2023-01-08T08:51:57.742Z,94
2023-01-08T08:52:43.747Z,94
2023-01-08T08:53:29.723Z,94
2023-01-08T08:54:15.656Z,94
2023-01-08T08:55:01.756Z,94
2023-01-08T08:55:47.659Z,94
2023-01-08T08:56:33.749Z,94
2023-01-08T08:57:19.680Z,94
2023-01-08T08:58:05.668Z,94
2023-01-08T08:58:51.732Z,94
2023-01-08T08:59:37.699Z,94
2023-01-08T09:00:23.824Z,94
2023-01-08T09:01:09.811Z,94
2023-01-08T09:01:55.916Z,94
2023-01-08T09:02:42.047Z,94
2023-01-08T09:03:27.778Z,94
2023-01-08T09:04:13.700Z,94
2023-01-08T09:04:59.733Z,94
2023-01-08T09:05:45.661Z,94
2023-01-08T09:06:31.718Z,94
2023-01-08T09:07:17.719Z,94
2023-01-08T09:08:03.746Z,94
2023-01-08T09:08:49.719Z,94
2023-01-08T09:09:35.706Z,94
2023-01-08T09:10:22.272Z,94
2023-01-08T09:11:07.705Z,94
2023-01-08T09:11:53.787Z,94
2023-01-08T09:12:38.930Z,94
2023-01-08T09:13:25.722Z,94
2023-01-08T09:14:11.781Z,94
2023-01-08T09:14:57.698Z,94
2023-01-08T09:15:43.787Z,94
2023-01-08T09:16:29.947Z,94
2023-01-08T09:17:15.734Z,94
2023-01-08T09:18:01.790Z,94
2023-01-08T09:18:47.771Z,94
2023-01-08T09:19:33.796Z,94
2023-01-08T09:20:19.787Z,94
2023-01-08T09:21:05.749Z,94
2023-01-08T09:21:51.707Z,94
2023-01-08T09:22:37.754Z,94
2023-01-08T09:23:23.823Z,94
2023-01-08T09:24:09.798Z,94
2023-01-08T09:24:55.762Z,94
2023-01-08T09:25:41.781Z,94
2023-01-08T09:26:27.797Z,94
2023-01-08T09:27:13.778Z,94
2023-01-08T09:27:59.808Z,94
2023-01-08T09:28:45.737Z,94
2023-01-08T09:29:31.817Z,94
2023-01-08T09:30:17.836Z,94
2023-01-08T09:31:03.907Z,94
2023-01-08T09:31:49.851Z,94
2023-01-08T09:32:35.842Z,94
2023-01-08T09:33:22.487Z,94
2023-01-08T09:34:07.797Z,94
2023-01-08T09:34:53.895Z,94
2023-01-08T09:35:39.819Z,94
2023-01-08T09:36:25.748Z,94
2023-01-08T09:37:11.800Z,94
2023-01-08T09:37:57.878Z,94
2023-01-08T09:38:43.768Z,94
2023-01-08T09:39:29.793Z,94
2023-01-08T09:40:15.771Z,94
2023-01-08T09:41:01.826Z,94
2023-01-08T09:41:47.774Z,94
2023-01-08T09:42:33.821Z,94
2023-01-08T09:43:19.819Z,94
2023-01-08T09:44:05.768Z,94
2023-01-08T09:44:51.830Z,94
2023-01-08T09:45:37.935Z,94
2023-01-08T09:46:23.931Z,94
2023-01-08T09:47:09.869Z,94
2023-01-08T09:47:55.794Z,94
2023-01-08T09:48:41.864Z,94
2023-01-08T09:49:27.805Z,94
2023-01-08T09:50:13.818Z,93
2023-01-08T09:50:59.836Z,93
2023-01-08T09:51:45.770Z,94
2023-01-08T09:52:31.875Z,93
2023-01-08T09:53:17.831Z,93
2023-01-08T09:54:03.874Z,93
2023-01-08T09:54:49.836Z,93
2023-01-08T09:55:35.795Z,93
2023-01-08T09:56:21.124Z,93
2023-01-08T09:57:07.820Z,93
2023-01-08T09:57:53.940Z,93
2023-01-08T09:58:39.865Z,93
2023-01-08T09:59:25.814Z,93
2023-01-08T10:00:11.964Z,93
2023-01-08T10:00:58.015Z,93
2023-01-08T10:01:43.959Z,93
2023-01-08T10:02:30.065Z,93
2023-01-08T10:03:15.832Z,93
2023-01-08T10:04:02.066Z,93
2023-01-08T10:04:47.889Z,93
2023-01-08T10:05:33.826Z,93
2023-01-08T10:06:19.886Z,93
2023-01-08T10:07:05.856Z,93
2023-01-08T10:07:51.877Z,93
2023-01-08T10:08:37.895Z,93
2023-01-08T10:09:24.054Z,93
2023-01-08T10:10:09.928Z,93
2023-01-08T10:10:55.946Z,93
2023-01-08T10:11:41.907Z,93
2023-01-08T10:12:27.867Z,93
2023-01-08T10:13:13.857Z,93
2023-01-08T10:14:00.008Z,93
2023-01-08T10:14:45.896Z,93
2023-01-08T10:15:31.993Z,93
2023-01-08T10:16:17.888Z,93
2023-01-08T10:17:03.961Z,93
2023-01-08T10:17:49.926Z,93
2023-01-08T10:18:35.899Z,93
2023-01-08T10:19:22.552Z,92
2023-01-08T10:20:07.921Z,93
2023-01-08T10:20:54.699Z,93
2023-01-08T10:21:39.876Z,93
2023-01-08T10:22:25.959Z,93
2023-01-08T10:23:11.974Z,93
2023-01-08T10:23:57.969Z,93
2023-01-08T10:24:43.919Z,93
2023-01-08T10:25:29.959Z,93
2023-01-08T10:26:15.883Z,93
2023-01-08T10:27:01.960Z,93
2023-01-08T10:27:47.895Z,93
2023-01-08T10:28:33.972Z,93
2023-01-08T10:29:22.893Z,93
2023-01-08T10:30:06.094Z,93
2023-01-08T10:30:51.992Z,92
2023-01-08T10:31:37.950Z,93
2023-01-08T10:32:23.959Z,92
2023-01-08T10:33:10.043Z,92
2023-01-08T10:33:55.959Z,92
2023-01-08T10:34:42.026Z,92
2023-01-08T10:35:27.920Z,92
2023-01-08T10:36:13.959Z,92
2023-01-08T10:36:59.992Z,92
2023-01-08T10:37:45.972Z,92
2023-01-08T10:38:33.340Z,92
2023-01-08T10:39:17.954Z,92
2023-01-08T10:40:03.962Z,92
2023-01-08T10:40:49.975Z,92
2023-01-08T10:41:35.960Z,92
2023-01-08T10:42:22.669Z,92
2023-01-08T10:43:08.061Z,92
2023-01-08T10:43:54.046Z,92
2023-01-08T10:44:39.934Z,91
2023-01-08T10:45:26.101Z,91
2023-01-08T10:46:12.101Z,91
2023-01-08T10:46:57.967Z,91
2023-01-08T10:47:44.019Z,91
2023-01-08T10:48:30.035Z,91
2023-01-08T10:49:15.961Z,91
2023-01-08T10:50:02.093Z,91
2023-01-08T10:50:48.055Z,91
2023-01-08T10:51:34.138Z,90
2023-01-08T10:52:20.147Z,90
2023-01-08T10:53:06.121Z,90
2023-01-08T10:53:52.159Z,89
2023-01-08T10:54:38.180Z,89
2023-01-08T10:55:24.204Z,89
2023-01-08T10:56:10.119Z,89